sensor_id;sensor_type;location;lat;lon;timestamp;P1;durP1;ratioP1;P2;durP2;ratioP2
62584;SDS011;48643;51.670;5.808;2023-02-04T00:00:02;4.80;;;1.80;;
62584;SDS011;48643;51.670;5.808;2023-02-04T00:04:57;9.65;;;1.67;;
62584;SDS011;48643;51.670;5.808;2023-02-04T00:07:24;7.75;;;1.85;;
62584;SDS011;48643;51.670;5.808;2023-02-04T00:09:51;4.15;;;1.65;;
62584;SDS011;48643;51.670;5.808;2023-02-04T00:12:18;4.88;;;1.70;;
62584;SDS011;48643;51.670;5.808;2023-02-04T00:14:45;4.07;;;1.60;;
62584;SDS011;48643;51.670;5.808;2023-02-04T00:17:11;5.13;;;1.90;;
62584;SDS011;48643;51.670;5.808;2023-02-04T00:19:38;4.57;;;1.77;;
62584;SDS011;48643;51.670;5.808;2023-02-04T00:22:06;5.90;;;1.80;;
62584;SDS011;48643;51.670;5.808;2023-02-04T00:24:34;6.50;;;1.98;;
62584;SDS011;48643;51.670;5.808;2023-02-04T00:27:01;4.72;;;1.80;;
62584;SDS011;48643;51.670;5.808;2023-02-04T00:29:29;6.22;;;1.85;;
62584;SDS011;48643;51.670;5.808;2023-02-04T00:31:56;3.97;;;1.70;;
62584;SDS011;48643;51.670;5.808;2023-02-04T00:34:23;3.53;;;1.58;;
62584;SDS011;48643;51.670;5.808;2023-02-04T00:36:50;5.03;;;1.83;;
62584;SDS011;48643;51.670;5.808;2023-02-04T00:39:17;4.45;;;1.52;;
62584;SDS011;48643;51.670;5.808;2023-02-04T00:41:43;4.13;;;1.67;;
62584;SDS011;48643;51.670;5.808;2023-02-04T00:44:12;5.40;;;1.93;;
62584;SDS011;48643;51.670;5.808;2023-02-04T00:46:42;8.68;;;1.73;;
62584;SDS011;48643;51.670;5.808;2023-02-04T00:49:09;5.65;;;1.80;;
62584;SDS011;48643;51.670;5.808;2023-02-04T00:51:37;4.35;;;1.60;;
62584;SDS011;48643;51.670;5.808;2023-02-04T00:54:05;4.73;;;1.93;;
62584;SDS011;48643;51.670;5.808;2023-02-04T00:56:32;4.35;;;1.70;;
62584;SDS011;48643;51.670;5.808;2023-02-04T00:58:59;6.55;;;1.67;;
62584;SDS011;48643;51.670;5.808;2023-02-04T01:01:26;6.35;;;1.98;;
62584;SDS011;48643;51.670;5.808;2023-02-04T01:03:53;4.03;;;1.80;;
62584;SDS011;48643;51.670;5.808;2023-02-04T01:06:22;4.07;;;1.87;;
62584;SDS011;48643;51.670;5.808;2023-02-04T01:08:49;3.58;;;1.55;;
62584;SDS011;48643;51.670;5.808;2023-02-04T01:11:15;4.60;;;1.65;;
62584;SDS011;48643;51.670;5.808;2023-02-04T01:13:43;3.67;;;1.50;;
62584;SDS011;48643;51.670;5.808;2023-02-04T01:16:10;4.00;;;1.67;;
62584;SDS011;48643;51.670;5.808;2023-02-04T01:18:38;6.10;;;1.85;;
62584;SDS011;48643;51.670;5.808;2023-02-04T01:21:04;4.10;;;1.60;;
62584;SDS011;48643;51.670;5.808;2023-02-04T01:23:31;4.25;;;1.90;;
62584;SDS011;48643;51.670;5.808;2023-02-04T01:25:58;4.72;;;1.88;;
62584;SDS011;48643;51.670;5.808;2023-02-04T01:28:25;3.95;;;1.60;;
62584;SDS011;48643;51.670;5.808;2023-02-04T01:30:52;4.20;;;1.63;;
62584;SDS011;48643;51.670;5.808;2023-02-04T01:33:19;4.35;;;1.67;;
62584;SDS011;48643;51.670;5.808;2023-02-04T01:35:46;3.53;;;1.40;;
62584;SDS011;48643;51.670;5.808;2023-02-04T01:38:13;3.78;;;1.45;;
62584;SDS011;48643;51.670;5.808;2023-02-04T01:40:40;4.13;;;1.38;;
62584;SDS011;48643;51.670;5.808;2023-02-04T01:43:07;4.78;;;1.63;;
62584;SDS011;48643;51.670;5.808;2023-02-04T01:45:34;2.88;;;1.20;;
62584;SDS011;48643;51.670;5.808;2023-02-04T01:48:02;4.75;;;1.58;;
62584;SDS011;48643;51.670;5.808;2023-02-04T01:50:30;7.25;;;1.75;;
62584;SDS011;48643;51.670;5.808;2023-02-04T01:52:57;5.47;;;1.70;;
62584;SDS011;48643;51.670;5.808;2023-02-04T01:55:27;2.67;;;1.20;;
62584;SDS011;48643;51.670;5.808;2023-02-04T01:57:55;3.58;;;1.60;;
62584;SDS011;48643;51.670;5.808;2023-02-04T02:00:25;4.13;;;1.55;;
62584;SDS011;48643;51.670;5.808;2023-02-04T02:02:55;4.85;;;1.60;;
62584;SDS011;48643;51.670;5.808;2023-02-04T02:05:23;3.97;;;1.27;;
62584;SDS011;48643;51.670;5.808;2023-02-04T02:07:53;4.85;;;1.60;;
62584;SDS011;48643;51.670;5.808;2023-02-04T02:10:21;4.20;;;1.60;;
62584;SDS011;48643;51.670;5.808;2023-02-04T02:12:49;3.28;;;1.50;;
62584;SDS011;48643;51.670;5.808;2023-02-04T02:15:16;3.15;;;1.50;;
62584;SDS011;48643;51.670;5.808;2023-02-04T02:17:43;4.38;;;1.60;;
62584;SDS011;48643;51.670;5.808;2023-02-04T02:20:12;4.07;;;1.67;;
62584;SDS011;48643;51.670;5.808;2023-02-04T02:22:52;4.43;;;1.63;;
62584;SDS011;48643;51.670;5.808;2023-02-04T02:25:39;4.40;;;1.67;;
62584;SDS011;48643;51.670;5.808;2023-02-04T02:28:09;3.95;;;1.63;;
62584;SDS011;48643;51.670;5.808;2023-02-04T02:30:38;7.32;;;1.70;;
62584;SDS011;48643;51.670;5.808;2023-02-04T02:33:06;4.57;;;1.50;;
62584;SDS011;48643;51.670;5.808;2023-02-04T02:35:33;4.22;;;1.58;;
62584;SDS011;48643;51.670;5.808;2023-02-04T02:38:00;3.63;;;1.58;;
62584;SDS011;48643;51.670;5.808;2023-02-04T02:40:26;4.38;;;1.35;;
62584;SDS011;48643;51.670;5.808;2023-02-04T02:42:53;4.28;;;1.60;;
62584;SDS011;48643;51.670;5.808;2023-02-04T02:45:27;3.08;;;1.40;;
62584;SDS011;48643;51.670;5.808;2023-02-04T02:47:56;4.32;;;1.40;;
62584;SDS011;48643;51.670;5.808;2023-02-04T02:50:25;3.58;;;1.30;;
62584;SDS011;48643;51.670;5.808;2023-02-04T02:55:21;3.00;;;1.42;;
62584;SDS011;48643;51.670;5.808;2023-02-04T02:57:50;4.57;;;1.70;;
62584;SDS011;48643;51.670;5.808;2023-02-04T03:03:14;3.85;;;1.42;;
62584;SDS011;48643;51.670;5.808;2023-02-04T03:05:40;5.43;;;1.30;;
62584;SDS011;48643;51.670;5.808;2023-02-04T03:08:10;2.85;;;1.58;;
62584;SDS011;48643;51.670;5.808;2023-02-04T03:10:38;4.83;;;1.67;;
62584;SDS011;48643;51.670;5.808;2023-02-04T03:13:05;3.17;;;1.33;;
62584;SDS011;48643;51.670;5.808;2023-02-04T03:15:32;3.72;;;1.42;;
62584;SDS011;48643;51.670;5.808;2023-02-04T03:17:59;2.72;;;1.20;;
62584;SDS011;48643;51.670;5.808;2023-02-04T03:20:26;3.47;;;1.50;;
62584;SDS011;48643;51.670;5.808;2023-02-04T03:22:56;3.60;;;1.55;;
62584;SDS011;48643;51.670;5.808;2023-02-04T03:25:24;4.80;;;1.83;;
62584;SDS011;48643;51.670;5.808;2023-02-04T03:27:56;2.70;;;1.20;;
62584;SDS011;48643;51.670;5.808;2023-02-04T03:30:24;3.30;;;1.50;;
62584;SDS011;48643;51.670;5.808;2023-02-04T03:32:51;3.28;;;1.60;;
62584;SDS011;48643;51.670;5.808;2023-02-04T03:35:18;4.30;;;1.50;;
62584;SDS011;48643;51.670;5.808;2023-02-04T03:37:45;3.75;;;1.60;;
62584;SDS011;48643;51.670;5.808;2023-02-04T03:40:12;6.20;;;1.55;;
62584;SDS011;48643;51.670;5.808;2023-02-04T03:42:39;3.10;;;1.35;;
62584;SDS011;48643;51.670;5.808;2023-02-04T03:45:06;5.85;;;1.50;;
62584;SDS011;48643;51.670;5.808;2023-02-04T03:47:33;3.88;;;1.40;;
62584;SDS011;48643;51.670;5.808;2023-02-04T03:50:00;2.83;;;1.33;;
62584;SDS011;48643;51.670;5.808;2023-02-04T03:52:26;5.07;;;1.63;;
62584;SDS011;48643;51.670;5.808;2023-02-04T03:54:53;2.63;;;1.20;;
62584;SDS011;48643;51.670;5.808;2023-02-04T03:57:20;5.05;;;1.50;;
62584;SDS011;48643;51.670;5.808;2023-02-04T03:59:47;3.17;;;1.42;;
62584;SDS011;48643;51.670;5.808;2023-02-04T04:02:13;2.75;;;1.40;;
62584;SDS011;48643;51.670;5.808;2023-02-04T04:04:40;5.50;;;1.60;;
62584;SDS011;48643;51.670;5.808;2023-02-04T04:07:07;4.13;;;1.58;;
62584;SDS011;48643;51.670;5.808;2023-02-04T04:09:33;2.58;;;1.20;;
62584;SDS011;48643;51.670;5.808;2023-02-04T04:12:00;4.60;;;1.55;;
62584;SDS011;48643;51.670;5.808;2023-02-04T04:14:29;3.77;;;1.57;;
62584;SDS011;48643;51.670;5.808;2023-02-04T04:16:55;4.13;;;1.65;;
62584;SDS011;48643;51.670;5.808;2023-02-04T04:19:22;4.03;;;1.38;;
62584;SDS011;48643;51.670;5.808;2023-02-04T04:21:50;6.40;;;1.80;;
62584;SDS011;48643;51.670;5.808;2023-02-04T04:24:18;3.78;;;1.60;;
62584;SDS011;48643;51.670;5.808;2023-02-04T04:26:44;3.10;;;1.40;;
62584;SDS011;48643;51.670;5.808;2023-02-04T04:29:11;3.45;;;1.55;;
62584;SDS011;48643;51.670;5.808;2023-02-04T04:31:38;3.45;;;1.38;;
62584;SDS011;48643;51.670;5.808;2023-02-04T04:34:05;5.45;;;1.60;;
62584;SDS011;48643;51.670;5.808;2023-02-04T04:36:32;5.05;;;1.50;;
62584;SDS011;48643;51.670;5.808;2023-02-04T04:39:00;2.60;;;1.20;;
62584;SDS011;48643;51.670;5.808;2023-02-04T04:41:27;3.53;;;1.20;;
62584;SDS011;48643;51.670;5.808;2023-02-04T04:43:53;4.53;;;1.35;;
62584;SDS011;48643;51.670;5.808;2023-02-04T04:46:20;3.28;;;1.48;;
62584;SDS011;48643;51.670;5.808;2023-02-04T04:48:47;2.50;;;1.40;;
62584;SDS011;48643;51.670;5.808;2023-02-04T04:51:14;2.88;;;1.40;;
62584;SDS011;48643;51.670;5.808;2023-02-04T04:53:40;5.13;;;1.50;;
62584;SDS011;48643;51.670;5.808;2023-02-04T04:56:07;3.65;;;1.30;;
62584;SDS011;48643;51.670;5.808;2023-02-04T04:58:34;3.67;;;1.40;;
62584;SDS011;48643;51.670;5.808;2023-02-04T05:01:01;5.50;;;1.67;;
62584;SDS011;48643;51.670;5.808;2023-02-04T05:03:28;5.38;;;1.70;;
62584;SDS011;48643;51.670;5.808;2023-02-04T05:05:54;3.75;;;1.50;;
62584;SDS011;48643;51.670;5.808;2023-02-04T05:08:22;3.45;;;1.50;;
62584;SDS011;48643;51.670;5.808;2023-02-04T05:10:49;5.72;;;1.58;;
62584;SDS011;48643;51.670;5.808;2023-02-04T05:13:16;3.97;;;1.70;;
62584;SDS011;48643;51.670;5.808;2023-02-04T05:15:42;4.20;;;1.50;;
62584;SDS011;48643;51.670;5.808;2023-02-04T05:18:09;4.70;;;1.83;;
62584;SDS011;48643;51.670;5.808;2023-02-04T05:20:36;3.30;;;1.38;;
62584;SDS011;48643;51.670;5.808;2023-02-04T05:23:02;3.15;;;1.38;;
62584;SDS011;48643;51.670;5.808;2023-02-04T05:25:31;3.13;;;1.55;;
62584;SDS011;48643;51.670;5.808;2023-02-04T05:27:58;3.78;;;1.50;;
62584;SDS011;48643;51.670;5.808;2023-02-04T05:30:24;3.13;;;1.50;;
62584;SDS011;48643;51.670;5.808;2023-02-04T05:32:51;3.00;;;1.45;;
62584;SDS011;48643;51.670;5.808;2023-02-04T05:35:18;3.50;;;1.75;;
62584;SDS011;48643;51.670;5.808;2023-02-04T05:37:45;3.58;;;1.58;;
62584;SDS011;48643;51.670;5.808;2023-02-04T05:40:12;3.75;;;1.50;;
62584;SDS011;48643;51.670;5.808;2023-02-04T05:42:39;3.45;;;1.50;;
62584;SDS011;48643;51.670;5.808;2023-02-04T05:45:16;4.18;;;1.55;;
62584;SDS011;48643;51.670;5.808;2023-02-04T05:47:44;3.78;;;1.65;;
62584;SDS011;48643;51.670;5.808;2023-02-04T05:50:10;4.70;;;1.52;;
62584;SDS011;48643;51.670;5.808;2023-02-04T05:52:37;2.80;;;1.40;;
62584;SDS011;48643;51.670;5.808;2023-02-04T05:55:05;4.13;;;1.42;;
62584;SDS011;48643;51.670;5.808;2023-02-04T05:57:32;2.53;;;1.40;;
62584;SDS011;48643;51.670;5.808;2023-02-04T05:59:59;4.70;;;1.75;;
62584;SDS011;48643;51.670;5.808;2023-02-04T06:02:37;4.07;;;1.40;;
62584;SDS011;48643;51.670;5.808;2023-02-04T06:05:03;3.22;;;1.20;;
62584;SDS011;48643;51.670;5.808;2023-02-04T06:07:31;3.03;;;1.40;;
62584;SDS011;48643;51.670;5.808;2023-02-04T06:09:57;3.42;;;1.48;;
62584;SDS011;48643;51.670;5.808;2023-02-04T06:12:25;3.53;;;1.40;;
62584;SDS011;48643;51.670;5.808;2023-02-04T06:14:52;4.68;;;1.70;;
62584;SDS011;48643;51.670;5.808;2023-02-04T06:17:19;2.80;;;1.40;;
62584;SDS011;48643;51.670;5.808;2023-02-04T06:19:45;3.90;;;1.60;;
62584;SDS011;48643;51.670;5.808;2023-02-04T06:22:12;3.28;;;1.40;;
62584;SDS011;48643;51.670;5.808;2023-02-04T06:24:39;5.15;;;1.50;;
62584;SDS011;48643;51.670;5.808;2023-02-04T06:27:06;3.92;;;1.40;;
62584;SDS011;48643;51.670;5.808;2023-02-04T06:29:32;4.93;;;1.55;;
62584;SDS011;48643;51.670;5.808;2023-02-04T06:31:59;3.53;;;1.50;;
62584;SDS011;48643;51.670;5.808;2023-02-04T06:34:26;5.38;;;1.73;;
62584;SDS011;48643;51.670;5.808;2023-02-04T06:36:52;2.35;;;1.50;;
62584;SDS011;48643;51.670;5.808;2023-02-04T06:39:19;4.75;;;1.50;;
62584;SDS011;48643;51.670;5.808;2023-02-04T06:41:47;4.20;;;1.33;;
62584;SDS011;48643;51.670;5.808;2023-02-04T06:44:14;2.70;;;1.23;;
62584;SDS011;48643;51.670;5.808;2023-02-04T06:46:41;3.58;;;1.33;;
62584;SDS011;48643;51.670;5.808;2023-02-04T06:49:07;2.70;;;1.20;;
62584;SDS011;48643;51.670;5.808;2023-02-04T06:51:34;3.53;;;1.42;;
62584;SDS011;48643;51.670;5.808;2023-02-04T06:54:01;3.90;;;1.50;;
62584;SDS011;48643;51.670;5.808;2023-02-04T06:56:28;3.85;;;1.48;;
62584;SDS011;48643;51.670;5.808;2023-02-04T06:58:55;2.30;;;1.38;;
62584;SDS011;48643;51.670;5.808;2023-02-04T07:01:22;3.72;;;1.30;;
62584;SDS011;48643;51.670;5.808;2023-02-04T07:03:48;4.15;;;1.40;;
62584;SDS011;48643;51.670;5.808;2023-02-04T07:06:15;2.92;;;1.38;;
62584;SDS011;48643;51.670;5.808;2023-02-04T07:08:42;4.13;;;1.60;;
62584;SDS011;48643;51.670;5.808;2023-02-04T07:11:09;3.00;;;1.58;;
62584;SDS011;48643;51.670;5.808;2023-02-04T07:13:35;3.05;;;1.30;;
62584;SDS011;48643;51.670;5.808;2023-02-04T07:16:02;5.78;;;1.50;;
62584;SDS011;48643;51.670;5.808;2023-02-04T07:18:29;4.53;;;1.60;;
62584;SDS011;48643;51.670;5.808;2023-02-04T07:20:56;4.28;;;1.60;;
62584;SDS011;48643;51.670;5.808;2023-02-04T07:23:22;2.92;;;1.30;;
62584;SDS011;48643;51.670;5.808;2023-02-04T07:25:50;3.00;;;1.60;;
62584;SDS011;48643;51.670;5.808;2023-02-04T07:28:21;3.17;;;1.50;;
62584;SDS011;48643;51.670;5.808;2023-02-04T07:30:48;2.83;;;1.40;;
62584;SDS011;48643;51.670;5.808;2023-02-04T07:33:15;2.25;;;1.20;;
62584;SDS011;48643;51.670;5.808;2023-02-04T07:35:42;5.95;;;2.42;;
62584;SDS011;48643;51.670;5.808;2023-02-04T07:38:09;6.93;;;2.42;;
62584;SDS011;48643;51.670;5.808;2023-02-04T07:40:36;6.60;;;2.40;;
62584;SDS011;48643;51.670;5.808;2023-02-04T07:43:04;11.63;;;2.53;;
62584;SDS011;48643;51.670;5.808;2023-02-04T07:45:32;7.88;;;2.35;;
62584;SDS011;48643;51.670;5.808;2023-02-04T07:47:58;7.53;;;2.30;;
62584;SDS011;48643;51.670;5.808;2023-02-04T07:50:25;6.90;;;2.35;;
62584;SDS011;48643;51.670;5.808;2023-02-04T07:52:52;9.88;;;2.83;;
62584;SDS011;48643;51.670;5.808;2023-02-04T07:55:19;7.70;;;2.30;;
62584;SDS011;48643;51.670;5.808;2023-02-04T07:57:45;9.98;;;2.50;;
62584;SDS011;48643;51.670;5.808;2023-02-04T08:00:12;8.88;;;2.45;;
62584;SDS011;48643;51.670;5.808;2023-02-04T08:02:40;9.23;;;2.40;;
62584;SDS011;48643;51.670;5.808;2023-02-04T08:05:08;9.15;;;2.65;;
62584;SDS011;48643;51.670;5.808;2023-02-04T08:07:35;9.50;;;2.38;;
62584;SDS011;48643;51.670;5.808;2023-02-04T08:10:02;7.10;;;2.33;;
62584;SDS011;48643;51.670;5.808;2023-02-04T08:12:30;8.25;;;2.40;;
62584;SDS011;48643;51.670;5.808;2023-02-04T08:14:57;10.07;;;2.50;;
62584;SDS011;48643;51.670;5.808;2023-02-04T08:17:24;6.68;;;2.60;;
62584;SDS011;48643;51.670;5.808;2023-02-04T08:19:50;8.55;;;2.50;;
62584;SDS011;48643;51.670;5.808;2023-02-04T08:22:17;10.07;;;2.78;;
62584;SDS011;48643;51.670;5.808;2023-02-04T08:24:44;7.75;;;2.60;;
62584;SDS011;48643;51.670;5.808;2023-02-04T08:27:11;10.55;;;2.65;;
62584;SDS011;48643;51.670;5.808;2023-02-04T08:29:38;9.80;;;3.10;;
62584;SDS011;48643;51.670;5.808;2023-02-04T08:32:05;10.68;;;2.92;;
62584;SDS011;48643;51.670;5.808;2023-02-04T08:34:32;11.98;;;2.95;;
62584;SDS011;48643;51.670;5.808;2023-02-04T08:36:59;13.90;;;3.50;;
62584;SDS011;48643;51.670;5.808;2023-02-04T08:39:25;12.02;;;3.20;;
62584;SDS011;48643;51.670;5.808;2023-02-04T08:41:52;13.02;;;2.92;;
62584;SDS011;48643;51.670;5.808;2023-02-04T08:44:19;15.15;;;2.95;;
62584;SDS011;48643;51.670;5.808;2023-02-04T08:46:45;10.82;;;3.00;;
62584;SDS011;48643;51.670;5.808;2023-02-04T08:49:12;10.55;;;2.67;;
62584;SDS011;48643;51.670;5.808;2023-02-04T08:51:39;10.10;;;2.88;;
62584;SDS011;48643;51.670;5.808;2023-02-04T08:54:06;10.90;;;2.70;;
62584;SDS011;48643;51.670;5.808;2023-02-04T08:56:33;8.88;;;2.80;;
62584;SDS011;48643;51.670;5.808;2023-02-04T08:59:03;8.57;;;2.80;;
62584;SDS011;48643;51.670;5.808;2023-02-04T09:01:29;11.52;;;3.13;;
62584;SDS011;48643;51.670;5.808;2023-02-04T09:03:56;12.43;;;3.25;;
62584;SDS011;48643;51.670;5.808;2023-02-04T09:06:23;10.27;;;2.97;;
62584;SDS011;48643;51.670;5.808;2023-02-04T09:08:49;10.23;;;3.80;;
62584;SDS011;48643;51.670;5.808;2023-02-04T09:11:16;15.05;;;3.00;;
62584;SDS011;48643;51.670;5.808;2023-02-04T09:13:43;10.57;;;2.80;;
62584;SDS011;48643;51.670;5.808;2023-02-04T09:16:10;10.88;;;3.20;;
62584;SDS011;48643;51.670;5.808;2023-02-04T09:18:36;7.47;;;2.70;;
62584;SDS011;48643;51.670;5.808;2023-02-04T09:21:03;11.25;;;2.75;;
62584;SDS011;48643;51.670;5.808;2023-02-04T09:23:30;10.32;;;3.22;;
62584;SDS011;48643;51.670;5.808;2023-02-04T09:25:57;9.07;;;3.22;;
62584;SDS011;48643;51.670;5.808;2023-02-04T09:28:24;9.73;;;3.05;;
62584;SDS011;48643;51.670;5.808;2023-02-04T09:30:50;11.32;;;3.25;;
62584;SDS011;48643;51.670;5.808;2023-02-04T09:33:17;13.77;;;3.35;;
62584;SDS011;48643;51.670;5.808;2023-02-04T09:35:44;8.98;;;2.92;;
62584;SDS011;48643;51.670;5.808;2023-02-04T09:38:11;9.85;;;3.25;;
62584;SDS011;48643;51.670;5.808;2023-02-04T09:40:41;13.48;;;3.25;;
62584;SDS011;48643;51.670;5.808;2023-02-04T09:43:24;8.63;;;2.92;;
62584;SDS011;48643;51.670;5.808;2023-02-04T09:45:51;14.35;;;3.40;;
62584;SDS011;48643;51.670;5.808;2023-02-04T09:48:20;12.00;;;3.30;;
62584;SDS011;48643;51.670;5.808;2023-02-04T09:50:48;11.23;;;3.17;;
62584;SDS011;48643;51.670;5.808;2023-02-04T09:53:17;14.52;;;3.20;;
62584;SDS011;48643;51.670;5.808;2023-02-04T09:55:47;13.82;;;3.20;;
62584;SDS011;48643;51.670;5.808;2023-02-04T09:58:19;11.40;;;2.90;;
62584;SDS011;48643;51.670;5.808;2023-02-04T10:00:51;8.80;;;3.30;;
62584;SDS011;48643;51.670;5.808;2023-02-04T10:03:22;8.77;;;2.90;;
62584;SDS011;48643;51.670;5.808;2023-02-04T10:05:49;8.18;;;2.90;;
62584;SDS011;48643;51.670;5.808;2023-02-04T10:08:16;6.70;;;2.67;;
62584;SDS011;48643;51.670;5.808;2023-02-04T10:10:51;9.68;;;2.90;;
62584;SDS011;48643;51.670;5.808;2023-02-04T10:13:19;8.25;;;2.50;;
62584;SDS011;48643;51.670;5.808;2023-02-04T10:15:57;9.18;;;2.85;;
62584;SDS011;48643;51.670;5.808;2023-02-04T10:18:25;11.60;;;2.83;;
62584;SDS011;48643;51.670;5.808;2023-02-04T10:20:56;14.70;;;3.40;;
62584;SDS011;48643;51.670;5.808;2023-02-04T10:23:37;15.57;;;3.40;;
62584;SDS011;48643;51.670;5.808;2023-02-04T10:26:04;14.73;;;3.58;;
62584;SDS011;48643;51.670;5.808;2023-02-04T10:28:34;17.65;;;4.00;;
62584;SDS011;48643;51.670;5.808;2023-02-04T10:31:01;12.85;;;3.60;;
62584;SDS011;48643;51.670;5.808;2023-02-04T10:33:29;11.20;;;3.20;;
62584;SDS011;48643;51.670;5.808;2023-02-04T10:35:56;9.93;;;3.70;;
62584;SDS011;48643;51.670;5.808;2023-02-04T10:38:23;11.65;;;3.20;;
62584;SDS011;48643;51.670;5.808;2023-02-04T10:41:03;12.07;;;3.33;;
62584;SDS011;48643;51.670;5.808;2023-02-04T10:43:30;13.55;;;2.97;;
62584;SDS011;48643;51.670;5.808;2023-02-04T10:45:58;11.95;;;3.50;;
62584;SDS011;48643;51.670;5.808;2023-02-04T10:48:28;7.97;;;2.78;;
62584;SDS011;48643;51.670;5.808;2023-02-04T10:50:56;9.02;;;3.42;;
62584;SDS011;48643;51.670;5.808;2023-02-04T10:53:24;9.07;;;2.70;;
62584;SDS011;48643;51.670;5.808;2023-02-04T10:56:16;10.55;;;2.85;;
62584;SDS011;48643;51.670;5.808;2023-02-04T10:58:46;10.25;;;2.78;;
62584;SDS011;48643;51.670;5.808;2023-02-04T11:01:15;13.82;;;2.95;;
62584;SDS011;48643;51.670;5.808;2023-02-04T11:03:42;9.85;;;2.92;;
62584;SDS011;48643;51.670;5.808;2023-02-04T11:06:15;8.05;;;2.83;;
62584;SDS011;48643;51.670;5.808;2023-02-04T11:08:47;9.43;;;3.10;;
62584;SDS011;48643;51.670;5.808;2023-02-04T11:11:25;11.68;;;3.13;;
62584;SDS011;48643;51.670;5.808;2023-02-04T11:18:55;10.02;;;2.72;;
62584;SDS011;48643;51.670;5.808;2023-02-04T11:21:25;12.63;;;3.15;;
62584;SDS011;48643;51.670;5.808;2023-02-04T11:27:24;10.68;;;2.85;;
62584;SDS011;48643;51.670;5.808;2023-02-04T11:29:33;12.40;;;2.90;;
62584;SDS011;48643;51.670;5.808;2023-02-04T11:32:06;7.80;;;2.70;;
62584;SDS011;48643;51.670;5.808;2023-02-04T11:37:56;8.07;;;2.85;;
62584;SDS011;48643;51.670;5.808;2023-02-04T11:40:24;9.48;;;2.53;;
62584;SDS011;48643;51.670;5.808;2023-02-04T11:43:00;8.40;;;2.38;;
62584;SDS011;48643;51.670;5.808;2023-02-04T11:45:29;9.13;;;2.60;;
62584;SDS011;48643;51.670;5.808;2023-02-04T11:47:58;13.70;;;3.00;;
62584;SDS011;48643;51.670;5.808;2023-02-04T11:50:28;10.02;;;2.80;;
62584;SDS011;48643;51.670;5.808;2023-02-04T11:53:00;6.90;;;2.55;;
62584;SDS011;48643;51.670;5.808;2023-02-04T11:55:28;8.88;;;2.25;;
62584;SDS011;48643;51.670;5.808;2023-02-04T11:57:56;9.55;;;2.63;;
62584;SDS011;48643;51.670;5.808;2023-02-04T12:00:30;9.20;;;2.50;;
62584;SDS011;48643;51.670;5.808;2023-02-04T12:03:00;7.63;;;2.60;;
62584;SDS011;48643;51.670;5.808;2023-02-04T12:05:44;6.57;;;2.58;;
62584;SDS011;48643;51.670;5.808;2023-02-04T12:08:23;11.30;;;2.63;;
62584;SDS011;48643;51.670;5.808;2023-02-04T12:11:12;6.57;;;2.50;;
62584;SDS011;48643;51.670;5.808;2023-02-04T12:13:56;9.25;;;2.55;;
62584;SDS011;48643;51.670;5.808;2023-02-04T12:16:44;8.02;;;2.50;;
62584;SDS011;48643;51.670;5.808;2023-02-04T12:19:12;8.68;;;2.33;;
62584;SDS011;48643;51.670;5.808;2023-02-04T12:21:39;8.85;;;2.22;;
62584;SDS011;48643;51.670;5.808;2023-02-04T12:24:06;8.60;;;2.47;;
62584;SDS011;48643;51.670;5.808;2023-02-04T12:26:33;10.65;;;2.42;;
62584;SDS011;48643;51.670;5.808;2023-02-04T12:28:59;9.00;;;2.53;;
62584;SDS011;48643;51.670;5.808;2023-02-04T12:31:29;8.30;;;2.78;;
62584;SDS011;48643;51.670;5.808;2023-02-04T12:33:56;9.45;;;3.03;;
62584;SDS011;48643;51.670;5.808;2023-02-04T12:36:23;13.32;;;3.20;;
62584;SDS011;48643;51.670;5.808;2023-02-04T12:38:52;11.57;;;2.78;;
62584;SDS011;48643;51.670;5.808;2023-02-04T12:41:20;10.50;;;2.70;;
62584;SDS011;48643;51.670;5.808;2023-02-04T12:43:46;14.40;;;2.80;;
62584;SDS011;48643;51.670;5.808;2023-02-04T12:46:16;9.27;;;2.63;;
62584;SDS011;48643;51.670;5.808;2023-02-04T12:48:43;9.68;;;2.75;;
62584;SDS011;48643;51.670;5.808;2023-02-04T12:51:10;11.50;;;2.90;;
62584;SDS011;48643;51.670;5.808;2023-02-04T12:53:36;8.82;;;2.35;;
62584;SDS011;48643;51.670;5.808;2023-02-04T12:56:03;11.95;;;2.40;;
62584;SDS011;48643;51.670;5.808;2023-02-04T12:58:30;13.18;;;2.80;;
62584;SDS011;48643;51.670;5.808;2023-02-04T13:00:57;13.30;;;2.45;;
62584;SDS011;48643;51.670;5.808;2023-02-04T13:03:24;9.18;;;2.53;;
62584;SDS011;48643;51.670;5.808;2023-02-04T13:05:51;7.93;;;2.65;;
62584;SDS011;48643;51.670;5.808;2023-02-04T13:08:18;8.60;;;2.45;;
62584;SDS011;48643;51.670;5.808;2023-02-04T13:10:45;12.60;;;2.83;;
62584;SDS011;48643;51.670;5.808;2023-02-04T13:13:17;8.18;;;2.42;;
62584;SDS011;48643;51.670;5.808;2023-02-04T13:15:44;9.48;;;2.30;;
62584;SDS011;48643;51.670;5.808;2023-02-04T13:18:11;10.82;;;2.35;;
62584;SDS011;48643;51.670;5.808;2023-02-04T13:20:39;10.45;;;2.60;;
62584;SDS011;48643;51.670;5.808;2023-02-04T13:23:07;6.13;;;2.40;;
62584;SDS011;48643;51.670;5.808;2023-02-04T13:25:34;8.40;;;2.47;;
62584;SDS011;48643;51.670;5.808;2023-02-04T13:28:01;7.10;;;2.30;;
62584;SDS011;48643;51.670;5.808;2023-02-04T13:30:27;7.72;;;1.98;;
62584;SDS011;48643;51.670;5.808;2023-02-04T13:32:54;8.50;;;2.28;;
62584;SDS011;48643;51.670;5.808;2023-02-04T13:35:21;8.88;;;2.60;;
62584;SDS011;48643;51.670;5.808;2023-02-04T13:37:48;9.05;;;3.25;;
62584;SDS011;48643;51.670;5.808;2023-02-04T13:40:14;8.82;;;2.22;;
62584;SDS011;48643;51.670;5.808;2023-02-04T13:42:41;6.18;;;2.10;;
62584;SDS011;48643;51.670;5.808;2023-02-04T13:45:08;8.95;;;2.30;;
62584;SDS011;48643;51.670;5.808;2023-02-04T13:50:05;7.75;;;2.20;;
62584;SDS011;48643;51.670;5.808;2023-02-04T13:52:32;7.72;;;2.15;;
62584;SDS011;48643;51.670;5.808;2023-02-04T13:54:59;8.38;;;2.00;;
62584;SDS011;48643;51.670;5.808;2023-02-04T13:57:26;7.05;;;2.38;;
62584;SDS011;48643;51.670;5.808;2023-02-04T13:59:53;9.93;;;2.35;;
62584;SDS011;48643;51.670;5.808;2023-02-04T14:02:20;5.47;;;2.20;;
62584;SDS011;48643;51.670;5.808;2023-02-04T14:04:49;8.10;;;2.10;;
62584;SDS011;48643;51.670;5.808;2023-02-04T14:07:16;5.80;;;2.20;;
62584;SDS011;48643;51.670;5.808;2023-02-04T14:09:43;7.50;;;2.10;;
62584;SDS011;48643;51.670;5.808;2023-02-04T14:12:09;13.27;;;2.22;;
62584;SDS011;48643;51.670;5.808;2023-02-04T14:14:36;6.60;;;2.20;;
62584;SDS011;48643;51.670;5.808;2023-02-04T14:17:03;8.52;;;2.33;;
62584;SDS011;48643;51.670;5.808;2023-02-04T14:19:30;7.10;;;2.00;;
62584;SDS011;48643;51.670;5.808;2023-02-04T14:21:56;10.57;;;2.20;;
62584;SDS011;48643;51.670;5.808;2023-02-04T14:24:23;11.32;;;2.58;;
62584;SDS011;48643;51.670;5.808;2023-02-04T14:26:51;5.07;;;1.90;;
62584;SDS011;48643;51.670;5.808;2023-02-04T14:29:18;6.68;;;2.15;;
62584;SDS011;48643;51.670;5.808;2023-02-04T14:31:44;6.07;;;2.03;;
62584;SDS011;48643;51.670;5.808;2023-02-04T14:34:11;6.43;;;3.15;;
62584;SDS011;48643;51.670;5.808;2023-02-04T14:36:38;8.88;;;2.20;;
62584;SDS011;48643;51.670;5.808;2023-02-04T14:39:05;4.90;;;1.85;;
62584;SDS011;48643;51.670;5.808;2023-02-04T14:41:31;6.78;;;1.98;;
62584;SDS011;48643;51.670;5.808;2023-02-04T14:43:58;5.25;;;1.80;;
62584;SDS011;48643;51.670;5.808;2023-02-04T14:46:25;5.57;;;2.05;;
62584;SDS011;48643;51.670;5.808;2023-02-04T14:48:52;5.43;;;1.90;;
62584;SDS011;48643;51.670;5.808;2023-02-04T14:51:19;7.55;;;2.13;;
62584;SDS011;48643;51.670;5.808;2023-02-04T14:53:46;5.80;;;2.20;;
62584;SDS011;48643;51.670;5.808;2023-02-04T14:56:14;6.93;;;2.00;;
62584;SDS011;48643;51.670;5.808;2023-02-04T14:58:41;3.78;;;1.85;;
62584;SDS011;48643;51.670;5.808;2023-02-04T15:01:08;4.75;;;2.00;;
62584;SDS011;48643;51.670;5.808;2023-02-04T15:03:36;4.88;;;2.00;;
62584;SDS011;48643;51.670;5.808;2023-02-04T15:06:03;6.10;;;2.20;;
62584;SDS011;48643;51.670;5.808;2023-02-04T15:08:30;5.22;;;1.95;;
62584;SDS011;48643;51.670;5.808;2023-02-04T15:10:58;4.07;;;1.70;;